sensor_id;sensor_type;location;lat;lon;timestamp;P1;durP1;ratioP1;P2;durP2;ratioP2
67162;SDS011;54092;53.088;8.850;2023-07-24T00:00:19;6.07;;;3.78;;
67162;SDS011;54092;53.088;8.850;2023-07-24T00:02:45;5.47;;;3.60;;
67162;SDS011;54092;53.088;8.850;2023-07-24T00:05:11;9.35;;;3.80;;
67162;SDS011;54092;53.088;8.850;2023-07-24T00:07:36;7.28;;;3.97;;
67162;SDS011;54092;53.088;8.850;2023-07-24T00:10:02;6.65;;;3.80;;
67162;SDS011;54092;53.088;8.850;2023-07-24T00:12:28;6.97;;;4.18;;
67162;SDS011;54092;53.088;8.850;2023-07-24T00:14:54;7.80;;;4.35;;
67162;SDS011;54092;53.088;8.850;2023-07-24T00:17:20;7.30;;;4.35;;
67162;SDS011;54092;53.088;8.850;2023-07-24T00:19:45;6.50;;;3.88;;
67162;SDS011;54092;53.088;8.850;2023-07-24T00:22:11;8.18;;;4.13;;
67162;SDS011;54092;53.088;8.850;2023-07-24T00:24:36;7.15;;;4.05;;
67162;SDS011;54092;53.088;8.850;2023-07-24T00:27:02;7.57;;;4.10;;
67162;SDS011;54092;53.088;8.850;2023-07-24T00:29:27;7.10;;;3.92;;
67162;SDS011;54092;53.088;8.850;2023-07-24T00:31:53;9.30;;;4.15;;
67162;SDS011;54092;53.088;8.850;2023-07-24T00:34:19;9.15;;;3.58;;
67162;SDS011;54092;53.088;8.850;2023-07-24T00:36:45;6.47;;;3.60;;
67162;SDS011;54092;53.088;8.850;2023-07-24T00:39:10;7.68;;;3.97;;
67162;SDS011;54092;53.088;8.850;2023-07-24T00:41:36;7.35;;;3.55;;
67162;SDS011;54092;53.088;8.850;2023-07-24T00:44:02;8.07;;;4.07;;
67162;SDS011;54092;53.088;8.850;2023-07-24T00:46:27;6.18;;;3.80;;
67162;SDS011;54092;53.088;8.850;2023-07-24T00:48:57;6.57;;;3.75;;
67162;SDS011;54092;53.088;8.850;2023-07-24T00:51:23;6.70;;;3.80;;
67162;SDS011;54092;53.088;8.850;2023-07-24T00:53:49;8.02;;;4.03;;
67162;SDS011;54092;53.088;8.850;2023-07-24T00:56:14;8.05;;;3.80;;
67162;SDS011;54092;53.088;8.850;2023-07-24T00:58:40;6.15;;;3.70;;
67162;SDS011;54092;53.088;8.850;2023-07-24T01:01:05;6.70;;;3.58;;
67162;SDS011;54092;53.088;8.850;2023-07-24T01:03:32;7.15;;;4.07;;
67162;SDS011;54092;53.088;8.850;2023-07-24T01:06:01;7.60;;;3.70;;
67162;SDS011;54092;53.088;8.850;2023-07-24T01:08:27;6.18;;;3.33;;
67162;SDS011;54092;53.088;8.850;2023-07-24T01:10:53;7.20;;;4.00;;
67162;SDS011;54092;53.088;8.850;2023-07-24T01:13:22;7.20;;;3.25;;
67162;SDS011;54092;53.088;8.850;2023-07-24T01:16:00;6.30;;;3.97;;
67162;SDS011;54092;53.088;8.850;2023-07-24T01:18:37;7.23;;;3.70;;
67162;SDS011;54092;53.088;8.850;2023-07-24T01:21:04;7.72;;;3.55;;
67162;SDS011;54092;53.088;8.850;2023-07-24T01:26:21;7.15;;;3.60;;
67162;SDS011;54092;53.088;8.850;2023-07-24T01:28:49;7.38;;;3.67;;
67162;SDS011;54092;53.088;8.850;2023-07-24T01:31:14;8.55;;;3.90;;
67162;SDS011;54092;53.088;8.850;2023-07-24T01:33:41;8.93;;;3.80;;
67162;SDS011;54092;53.088;8.850;2023-07-24T01:36:07;7.25;;;3.42;;
67162;SDS011;54092;53.088;8.850;2023-07-24T01:38:34;8.65;;;3.72;;
67162;SDS011;54092;53.088;8.850;2023-07-24T01:41:00;8.02;;;3.78;;
67162;SDS011;54092;53.088;8.850;2023-07-24T01:43:27;12.27;;;4.20;;
67162;SDS011;54092;53.088;8.850;2023-07-24T01:45:54;7.10;;;3.60;;
67162;SDS011;54092;53.088;8.850;2023-07-24T01:48:19;8.68;;;3.83;;
67162;SDS011;54092;53.088;8.850;2023-07-24T01:50:45;7.53;;;3.70;;
67162;SDS011;54092;53.088;8.850;2023-07-24T01:53:10;7.40;;;3.83;;
67162;SDS011;54092;53.088;8.850;2023-07-24T01:55:36;8.38;;;4.00;;
67162;SDS011;54092;53.088;8.850;2023-07-24T01:58:02;7.55;;;4.20;;
67162;SDS011;54092;53.088;8.850;2023-07-24T02:00:27;8.27;;;4.47;;
67162;SDS011;54092;53.088;8.850;2023-07-24T02:02:53;8.77;;;4.57;;
67162;SDS011;54092;53.088;8.850;2023-07-24T02:05:18;9.00;;;4.72;;
67162;SDS011;54092;53.088;8.850;2023-07-24T02:07:44;7.55;;;4.38;;
67162;SDS011;54092;53.088;8.850;2023-07-24T02:10:09;7.90;;;4.35;;
67162;SDS011;54092;53.088;8.850;2023-07-24T02:12:35;6.57;;;3.92;;
67162;SDS011;54092;53.088;8.850;2023-07-24T02:15:01;8.88;;;4.15;;
67162;SDS011;54092;53.088;8.850;2023-07-24T02:17:26;7.57;;;4.10;;
67162;SDS011;54092;53.088;8.850;2023-07-24T02:19:52;6.80;;;3.95;;
67162;SDS011;54092;53.088;8.850;2023-07-24T02:22:17;7.25;;;4.32;;
67162;SDS011;54092;53.088;8.850;2023-07-24T02:24:43;7.75;;;3.95;;
67162;SDS011;54092;53.088;8.850;2023-07-24T02:29:49;10.88;;;4.28;;
67162;SDS011;54092;53.088;8.850;2023-07-24T02:32:15;7.35;;;4.43;;
67162;SDS011;54092;53.088;8.850;2023-07-24T02:34:40;7.85;;;4.13;;
67162;SDS011;54092;53.088;8.850;2023-07-24T02:37:06;7.57;;;4.32;;
67162;SDS011;54092;53.088;8.850;2023-07-24T02:39:31;6.65;;;4.05;;
67162;SDS011;54092;53.088;8.850;2023-07-24T02:41:57;7.85;;;4.30;;
67162;SDS011;54092;53.088;8.850;2023-07-24T02:44:22;8.45;;;4.43;;
67162;SDS011;54092;53.088;8.850;2023-07-24T02:46:48;9.23;;;4.05;;
67162;SDS011;54092;53.088;8.850;2023-07-24T02:49:13;8.70;;;4.38;;
67162;SDS011;54092;53.088;8.850;2023-07-24T02:51:39;7.60;;;4.28;;
67162;SDS011;54092;53.088;8.850;2023-07-24T02:54:04;10.30;;;4.63;;
67162;SDS011;54092;53.088;8.850;2023-07-24T02:56:31;8.38;;;5.57;;
67162;SDS011;54092;53.088;8.850;2023-07-24T02:58:56;8.77;;;5.13;;
67162;SDS011;54092;53.088;8.850;2023-07-24T03:01:22;10.05;;;4.50;;
67162;SDS011;54092;53.088;8.850;2023-07-24T03:03:47;8.02;;;4.55;;
67162;SDS011;54092;53.088;8.850;2023-07-24T03:06:14;7.93;;;4.47;;
67162;SDS011;54092;53.088;8.850;2023-07-24T03:08:40;8.82;;;4.43;;
67162;SDS011;54092;53.088;8.850;2023-07-24T03:11:05;8.77;;;4.80;;
67162;SDS011;54092;53.088;8.850;2023-07-24T03:13:32;9.70;;;4.82;;
67162;SDS011;54092;53.088;8.850;2023-07-24T03:15:57;8.30;;;4.80;;
67162;SDS011;54092;53.088;8.850;2023-07-24T03:18:23;9.95;;;4.75;;
67162;SDS011;54092;53.088;8.850;2023-07-24T03:20:49;8.93;;;4.80;;
67162;SDS011;54092;53.088;8.850;2023-07-24T03:23:15;8.85;;;4.78;;
67162;SDS011;54092;53.088;8.850;2023-07-24T03:25:40;8.57;;;4.65;;
67162;SDS011;54092;53.088;8.850;2023-07-24T03:28:06;8.43;;;5.13;;
67162;SDS011;54092;53.088;8.850;2023-07-24T03:30:32;8.45;;;4.88;;
67162;SDS011;54092;53.088;8.850;2023-07-24T03:32:57;8.63;;;4.80;;
67162;SDS011;54092;53.088;8.850;2023-07-24T03:35:23;8.68;;;4.60;;
67162;SDS011;54092;53.088;8.850;2023-07-24T03:37:48;8.13;;;4.25;;
67162;SDS011;54092;53.088;8.850;2023-07-24T03:40:14;8.18;;;4.60;;
67162;SDS011;54092;53.088;8.850;2023-07-24T03:42:40;8.93;;;4.43;;
67162;SDS011;54092;53.088;8.850;2023-07-24T03:45:06;8.52;;;4.65;;
67162;SDS011;54092;53.088;8.850;2023-07-24T03:47:32;9.38;;;4.57;;
67162;SDS011;54092;53.088;8.850;2023-07-24T03:49:58;7.70;;;4.22;;
67162;SDS011;54092;53.088;8.850;2023-07-24T03:52:23;8.18;;;4.57;;
67162;SDS011;54092;53.088;8.850;2023-07-24T03:54:50;9.13;;;4.68;;
67162;SDS011;54092;53.088;8.850;2023-07-24T03:57:17;9.38;;;4.35;;
67162;SDS011;54092;53.088;8.850;2023-07-24T03:59:42;8.10;;;4.32;;
67162;SDS011;54092;53.088;8.850;2023-07-24T04:02:08;8.15;;;4.50;;
67162;SDS011;54092;53.088;8.850;2023-07-24T04:04:33;8.23;;;4.38;;
67162;SDS011;54092;53.088;8.850;2023-07-24T04:06:59;6.97;;;4.20;;
67162;SDS011;54092;53.088;8.850;2023-07-24T04:09:25;8.20;;;3.97;;
67162;SDS011;54092;53.088;8.850;2023-07-24T04:11:50;8.52;;;4.53;;
67162;SDS011;54092;53.088;8.850;2023-07-24T04:14:16;8.25;;;4.03;;
67162;SDS011;54092;53.088;8.850;2023-07-24T04:16:41;6.97;;;3.85;;
67162;SDS011;54092;53.088;8.850;2023-07-24T04:19:07;6.57;;;3.85;;
67162;SDS011;54092;53.088;8.850;2023-07-24T04:21:33;6.60;;;3.78;;
67162;SDS011;54092;53.088;8.850;2023-07-24T04:23:59;7.32;;;3.88;;
67162;SDS011;54092;53.088;8.850;2023-07-24T04:26:24;6.28;;;3.80;;
67162;SDS011;54092;53.088;8.850;2023-07-24T04:28:50;7.40;;;4.10;;
67162;SDS011;54092;53.088;8.850;2023-07-24T04:31:15;10.98;;;4.20;;
67162;SDS011;54092;53.088;8.850;2023-07-24T04:33:41;7.13;;;4.03;;
67162;SDS011;54092;53.088;8.850;2023-07-24T04:36:06;5.90;;;3.55;;
67162;SDS011;54092;53.088;8.850;2023-07-24T04:38:32;6.53;;;3.92;;
67162;SDS011;54092;53.088;8.850;2023-07-24T04:40:59;6.88;;;4.20;;
67162;SDS011;54092;53.088;8.850;2023-07-24T04:43:26;7.13;;;3.67;;
67162;SDS011;54092;53.088;8.850;2023-07-24T04:45:51;6.95;;;3.63;;
67162;SDS011;54092;53.088;8.850;2023-07-24T04:48:17;6.95;;;3.75;;
67162;SDS011;54092;53.088;8.850;2023-07-24T04:50:42;7.45;;;3.50;;
67162;SDS011;54092;53.088;8.850;2023-07-24T04:53:08;5.70;;;3.20;;
67162;SDS011;54092;53.088;8.850;2023-07-24T04:55:33;6.65;;;3.63;;
67162;SDS011;54092;53.088;8.850;2023-07-24T04:57:59;7.38;;;3.28;;
67162;SDS011;54092;53.088;8.850;2023-07-24T05:00:24;6.78;;;3.65;;
67162;SDS011;54092;53.088;8.850;2023-07-24T05:02:51;6.50;;;3.92;;
67162;SDS011;54092;53.088;8.850;2023-07-24T05:05:17;6.00;;;3.55;;
67162;SDS011;54092;53.088;8.850;2023-07-24T05:07:42;6.43;;;3.40;;
67162;SDS011;54092;53.088;8.850;2023-07-24T05:10:08;5.25;;;3.20;;
67162;SDS011;54092;53.088;8.850;2023-07-24T05:12:33;5.82;;;3.22;;
67162;SDS011;54092;53.088;8.850;2023-07-24T05:14:59;6.53;;;3.65;;
67162;SDS011;54092;53.088;8.850;2023-07-24T05:17:24;7.18;;;3.78;;
67162;SDS011;54092;53.088;8.850;2023-07-24T05:19:50;9.43;;;4.30;;
67162;SDS011;54092;53.088;8.850;2023-07-24T05:22:15;5.60;;;3.20;;
67162;SDS011;54092;53.088;8.850;2023-07-24T05:24:41;6.32;;;3.40;;
67162;SDS011;54092;53.088;8.850;2023-07-24T05:27:06;6.10;;;3.33;;
67162;SDS011;54092;53.088;8.850;2023-07-24T05:29:32;5.75;;;2.92;;
67162;SDS011;54092;53.088;8.850;2023-07-24T05:31:58;6.43;;;3.40;;
67162;SDS011;54092;53.088;8.850;2023-07-24T05:34:26;5.23;;;3.00;;
67162;SDS011;54092;53.088;8.850;2023-07-24T05:36:52;6.88;;;3.40;;
67162;SDS011;54092;53.088;8.850;2023-07-24T05:39:17;6.78;;;3.65;;
67162;SDS011;54092;53.088;8.850;2023-07-24T05:41:43;6.00;;;3.10;;
67162;SDS011;54092;53.088;8.850;2023-07-24T05:44:08;7.40;;;3.35;;
67162;SDS011;54092;53.088;8.850;2023-07-24T05:46:34;6.03;;;3.22;;
67162;SDS011;54092;53.088;8.850;2023-07-24T05:48:59;6.82;;;3.10;;
67162;SDS011;54092;53.088;8.850;2023-07-24T05:51:28;7.03;;;3.55;;
67162;SDS011;54092;53.088;8.850;2023-07-24T05:53:53;5.82;;;3.30;;
67162;SDS011;54092;53.088;8.850;2023-07-24T05:56:19;5.65;;;3.47;;
67162;SDS011;54092;53.088;8.850;2023-07-24T05:58:44;6.93;;;3.65;;
67162;SDS011;54092;53.088;8.850;2023-07-24T06:01:10;7.90;;;3.63;;
67162;SDS011;54092;53.088;8.850;2023-07-24T06:03:35;6.50;;;3.65;;
67162;SDS011;54092;53.088;8.850;2023-07-24T06:06:01;7.85;;;3.45;;
67162;SDS011;54092;53.088;8.850;2023-07-24T06:08:27;7.35;;;3.10;;
67162;SDS011;54092;53.088;8.850;2023-07-24T06:10:52;5.90;;;3.40;;
67162;SDS011;54092;53.088;8.850;2023-07-24T06:13:18;6.80;;;3.67;;
67162;SDS011;54092;53.088;8.850;2023-07-24T06:15:44;6.25;;;3.40;;
67162;SDS011;54092;53.088;8.850;2023-07-24T06:18:11;8.20;;;3.90;;
67162;SDS011;54092;53.088;8.850;2023-07-24T06:20:37;7.43;;;3.92;;
67162;SDS011;54092;53.088;8.850;2023-07-24T06:23:03;7.10;;;4.00;;
67162;SDS011;54092;53.088;8.850;2023-07-24T06:25:29;6.00;;;3.97;;
67162;SDS011;54092;53.088;8.850;2023-07-24T06:27:55;6.80;;;4.25;;
67162;SDS011;54092;53.088;8.850;2023-07-24T06:30:21;7.60;;;4.53;;
67162;SDS011;54092;53.088;8.850;2023-07-24T06:32:47;6.90;;;4.18;;
67162;SDS011;54092;53.088;8.850;2023-07-24T06:35:12;7.78;;;4.72;;
67162;SDS011;54092;53.088;8.850;2023-07-24T06:37:38;8.45;;;4.85;;
67162;SDS011;54092;53.088;8.850;2023-07-24T06:40:04;8.50;;;4.93;;
67162;SDS011;54092;53.088;8.850;2023-07-24T06:42:31;7.55;;;4.88;;
67162;SDS011;54092;53.088;8.850;2023-07-24T06:44:56;10.15;;;5.50;;
67162;SDS011;54092;53.088;8.850;2023-07-24T06:47:22;8.63;;;5.30;;
67162;SDS011;54092;53.088;8.850;2023-07-24T06:49:47;7.78;;;5.07;;
67162;SDS011;54092;53.088;8.850;2023-07-24T06:52:13;9.32;;;5.15;;
67162;SDS011;54092;53.088;8.850;2023-07-24T06:54:38;8.60;;;5.20;;
67162;SDS011;54092;53.088;8.850;2023-07-24T06:57:04;8.55;;;4.88;;
67162;SDS011;54092;53.088;8.850;2023-07-24T06:59:30;8.52;;;5.22;;
67162;SDS011;54092;53.088;8.850;2023-07-24T07:01:55;7.72;;;4.65;;
67162;SDS011;54092;53.088;8.850;2023-07-24T07:04:21;8.68;;;4.75;;
67162;SDS011;54092;53.088;8.850;2023-07-24T07:06:46;9.63;;;4.93;;
67162;SDS011;54092;53.088;8.850;2023-07-24T07:09:12;8.13;;;4.65;;
67162;SDS011;54092;53.088;8.850;2023-07-24T07:11:37;8.75;;;5.05;;
67162;SDS011;54092;53.088;8.850;2023-07-24T07:14:04;9.45;;;5.00;;
67162;SDS011;54092;53.088;8.850;2023-07-24T07:16:29;7.90;;;5.32;;
67162;SDS011;54092;53.088;8.850;2023-07-24T07:18:55;9.38;;;5.20;;
67162;SDS011;54092;53.088;8.850;2023-07-24T07:21:20;9.25;;;5.07;;
67162;SDS011;54092;53.088;8.850;2023-07-24T07:23:46;8.93;;;5.50;;
67162;SDS011;54092;53.088;8.850;2023-07-24T07:26:11;8.82;;;5.35;;
67162;SDS011;54092;53.088;8.850;2023-07-24T07:28:37;10.27;;;5.90;;
67162;SDS011;54092;53.088;8.850;2023-07-24T07:31:03;10.20;;;5.75;;
67162;SDS011;54092;53.088;8.850;2023-07-24T07:33:28;10.65;;;5.90;;
67162;SDS011;54092;53.088;8.850;2023-07-24T07:35:54;11.13;;;5.82;;
67162;SDS011;54092;53.088;8.850;2023-07-24T07:38:20;9.35;;;6.00;;
67162;SDS011;54092;53.088;8.850;2023-07-24T07:40:47;11.73;;;5.47;;
67162;SDS011;54092;53.088;8.850;2023-07-24T07:43:13;9.75;;;5.55;;
67162;SDS011;54092;53.088;8.850;2023-07-24T07:45:38;9.93;;;6.05;;
67162;SDS011;54092;53.088;8.850;2023-07-24T07:48:04;10.30;;;6.13;;
67162;SDS011;54092;53.088;8.850;2023-07-24T07:50:30;10.75;;;6.55;;
67162;SDS011;54092;53.088;8.850;2023-07-24T07:52:55;10.43;;;6.35;;
67162;SDS011;54092;53.088;8.850;2023-07-24T07:55:21;10.43;;;6.18;;
67162;SDS011;54092;53.088;8.850;2023-07-24T07:57:47;9.40;;;5.85;;
67162;SDS011;54092;53.088;8.850;2023-07-24T08:00:12;10.13;;;6.38;;
67162;SDS011;54092;53.088;8.850;2023-07-24T08:02:38;9.13;;;5.97;;
67162;SDS011;54092;53.088;8.850;2023-07-24T08:05:07;11.43;;;6.35;;
67162;SDS011;54092;53.088;8.850;2023-07-24T08:07:33;9.88;;;6.55;;
67162;SDS011;54092;53.088;8.850;2023-07-24T08:09:59;10.95;;;6.15;;
67162;SDS011;54092;53.088;8.850;2023-07-24T08:12:25;14.38;;;6.05;;
67162;SDS011;54092;53.088;8.850;2023-07-24T08:14:50;10.07;;;6.10;;
67162;SDS011;54092;53.088;8.850;2023-07-24T08:17:16;11.18;;;6.00;;
67162;SDS011;54092;53.088;8.850;2023-07-24T08:19:41;10.38;;;6.43;;
67162;SDS011;54092;53.088;8.850;2023-07-24T08:22:07;11.50;;;6.25;;
67162;SDS011;54092;53.088;8.850;2023-07-24T08:24:35;12.07;;;6.28;;
67162;SDS011;54092;53.088;8.850;2023-07-24T08:27:01;12.23;;;6.35;;
67162;SDS011;54092;53.088;8.850;2023-07-24T08:29:27;9.52;;;6.40;;
67162;SDS011;54092;53.088;8.850;2023-07-24T08:31:53;10.10;;;5.95;;
67162;SDS011;54092;53.088;8.850;2023-07-24T08:34:18;10.15;;;6.70;;
67162;SDS011;54092;53.088;8.850;2023-07-24T08:36:44;11.27;;;6.18;;
67162;SDS011;54092;53.088;8.850;2023-07-24T08:39:09;8.95;;;6.07;;
67162;SDS011;54092;53.088;8.850;2023-07-24T08:41:36;11.80;;;7.00;;
67162;SDS011;54092;53.088;8.850;2023-07-24T08:44:02;11.00;;;6.75;;
67162;SDS011;54092;53.088;8.850;2023-07-24T08:46:36;9.48;;;6.28;;
67162;SDS011;54092;53.088;8.850;2023-07-24T08:49:03;9.82;;;6.20;;
67162;SDS011;54092;53.088;8.850;2023-07-24T08:51:29;12.13;;;6.72;;
67162;SDS011;54092;53.088;8.850;2023-07-24T08:53:56;10.63;;;7.00;;
67162;SDS011;54092;53.088;8.850;2023-07-24T08:56:22;12.77;;;6.90;;
67162;SDS011;54092;53.088;8.850;2023-07-24T08:58:48;10.63;;;6.28;;
67162;SDS011;54092;53.088;8.850;2023-07-24T09:01:14;9.63;;;6.57;;
67162;SDS011;54092;53.088;8.850;2023-07-24T09:03:39;9.30;;;6.32;;
67162;SDS011;54092;53.088;8.850;2023-07-24T09:06:05;8.63;;;6.32;;
67162;SDS011;54092;53.088;8.850;2023-07-24T09:08:37;10.93;;;6.82;;
67162;SDS011;54092;53.088;8.850;2023-07-24T09:11:05;11.02;;;6.25;;
67162;SDS011;54092;53.088;8.850;2023-07-24T09:13:31;11.85;;;6.32;;
67162;SDS011;54092;53.088;8.850;2023-07-24T09:15:57;10.35;;;6.57;;
67162;SDS011;54092;53.088;8.850;2023-07-24T09:18:24;9.60;;;6.57;;
67162;SDS011;54092;53.088;8.850;2023-07-24T09:20:50;10.20;;;6.53;;
67162;SDS011;54092;53.088;8.850;2023-07-24T09:23:16;9.77;;;6.28;;
67162;SDS011;54092;53.088;8.850;2023-07-24T09:25:51;10.18;;;6.32;;
67162;SDS011;54092;53.088;8.850;2023-07-24T09:28:17;10.23;;;6.95;;
67162;SDS011;54092;53.088;8.850;2023-07-24T09:30:56;9.25;;;6.00;;
67162;SDS011;54092;53.088;8.850;2023-07-24T09:33:33;10.43;;;6.00;;
67162;SDS011;54092;53.088;8.850;2023-07-24T09:36:00;8.73;;;5.90;;
67162;SDS011;54092;53.088;8.850;2023-07-24T09:38:26;11.10;;;5.97;;
67162;SDS011;54092;53.088;8.850;2023-07-24T09:40:52;9.77;;;5.35;;
67162;SDS011;54092;53.088;8.850;2023-07-24T09:43:21;8.40;;;4.75;;
67162;SDS011;54092;53.088;8.850;2023-07-24T09:45:49;8.40;;;4.65;;
67162;SDS011;54092;53.088;8.850;2023-07-24T09:48:15;6.25;;;4.32;;
67162;SDS011;54092;53.088;8.850;2023-07-24T09:50:45;6.45;;;4.30;;
67162;SDS011;54092;53.088;8.850;2023-07-24T09:53:13;5.82;;;3.65;;
67162;SDS011;54092;53.088;8.850;2023-07-24T09:55:58;6.72;;;3.80;;
67162;SDS011;54092;53.088;8.850;2023-07-24T09:58:29;6.18;;;3.67;;
67162;SDS011;54092;53.088;8.850;2023-07-24T10:00:57;6.15;;;3.83;;
67162;SDS011;54092;53.088;8.850;2023-07-24T10:03:23;5.40;;;3.40;;
67162;SDS011;54092;53.088;8.850;2023-07-24T10:05:49;5.38;;;3.53;;
67162;SDS011;54092;53.088;8.850;2023-07-24T10:08:16;6.07;;;3.88;;
67162;SDS011;54092;53.088;8.850;2023-07-24T10:10:43;6.80;;;3.78;;
67162;SDS011;54092;53.088;8.850;2023-07-24T10:13:10;7.68;;;4.15;;
67162;SDS011;54092;53.088;8.850;2023-07-24T10:15:38;6.75;;;3.75;;
67162;SDS011;54092;53.088;8.850;2023-07-24T10:18:05;7.10;;;4.50;;
67162;SDS011;54092;53.088;8.850;2023-07-24T10:20:35;6.07;;;4.20;;
67162;SDS011;54092;53.088;8.850;2023-07-24T10:23:02;7.30;;;4.10;;
67162;SDS011;54092;53.088;8.850;2023-07-24T10:25:31;6.18;;;4.47;;
67162;SDS011;54092;53.088;8.850;2023-07-24T10:28:01;5.97;;;4.18;;
67162;SDS011;54092;53.088;8.850;2023-07-24T10:30:32;7.70;;;4.20;;
67162;SDS011;54092;53.088;8.850;2023-07-24T10:35:36;6.50;;;4.30;;
67162;SDS011;54092;53.088;8.850;2023-07-24T10:38:05;5.95;;;3.90;;
67162;SDS011;54092;53.088;8.850;2023-07-24T10:40:32;6.93;;;4.25;;
67162;SDS011;54092;53.088;8.850;2023-07-24T10:43:05;5.82;;;3.88;;
67162;SDS011;54092;53.088;8.850;2023-07-24T10:45:39;6.35;;;3.67;;
67162;SDS011;54092;53.088;8.850;2023-07-24T10:48:12;6.45;;;4.10;;
67162;SDS011;54092;53.088;8.850;2023-07-24T10:50:42;6.10;;;3.90;;
67162;SDS011;54092;53.088;8.850;2023-07-24T10:53:09;6.35;;;3.95;;
67162;SDS011;54092;53.088;8.850;2023-07-24T10:55:36;6.43;;;4.60;;
67162;SDS011;54092;53.088;8.850;2023-07-24T10:58:01;6.30;;;4.07;;
67162;SDS011;54092;53.088;8.850;2023-07-24T11:00:27;6.80;;;4.60;;
67162;SDS011;54092;53.088;8.850;2023-07-24T11:02:53;5.45;;;3.97;;
67162;SDS011;54092;53.088;8.850;2023-07-24T11:05:20;6.18;;;4.40;;
67162;SDS011;54092;53.088;8.850;2023-07-24T11:07:47;6.97;;;4.38;;
67162;SDS011;54092;53.088;8.850;2023-07-24T11:10:16;7.47;;;4.82;;
67162;SDS011;54092;53.088;8.850;2023-07-24T11:12:43;6.95;;;4.85;;
67162;SDS011;54092;53.088;8.850;2023-07-24T11:15:10;9.05;;;5.10;;
67162;SDS011;54092;53.088;8.850;2023-07-24T11:17:37;7.22;;;5.25;;
67162;SDS011;54092;53.088;8.850;2023-07-24T11:20:08;7.05;;;4.90;;
67162;SDS011;54092;53.088;8.850;2023-07-24T11:22:34;6.90;;;4.78;;
67162;SDS011;54092;53.088;8.850;2023-07-24T11:25:00;7.22;;;4.88;;
67162;SDS011;54092;53.088;8.850;2023-07-24T11:27:29;7.32;;;5.20;;
67162;SDS011;54092;53.088;8.850;2023-07-24T11:29:55;10.10;;;5.25;;
67162;SDS011;54092;53.088;8.850;2023-07-24T11:32:20;7.55;;;5.07;;
67162;SDS011;54092;53.088;8.850;2023-07-24T11:34:48;8.07;;;5.32;;
67162;SDS011;54092;53.088;8.850;2023-07-24T11:37:15;9.27;;;5.55;;
67162;SDS011;54092;53.088;8.850;2023-07-24T11:39:41;7.90;;;5.90;;
67162;SDS011;54092;53.088;8.850;2023-07-24T11:42:06;7.82;;;6.03;;
67162;SDS011;54092;53.088;8.850;2023-07-24T11:44:32;7.47;;;5.57;;
67162;SDS011;54092;53.088;8.850;2023-07-24T11:47:01;7.57;;;5.80;;
67162;SDS011;54092;53.088;8.850;2023-07-24T11:49:28;8.07;;;5.72;;
67162;SDS011;54092;53.088;8.850;2023-07-24T11:52:01;8.18;;;5.60;;
67162;SDS011;54092;53.088;8.850;2023-07-24T11:54:33;11.10;;;6.32;;
67162;SDS011;54092;53.088;8.850;2023-07-24T11:57:00;9.15;;;5.88;;
67162;SDS011;54092;53.088;8.850;2023-07-24T11:59:26;8.43;;;6.05;;
67162;SDS011;54092;53.088;8.850;2023-07-24T12:01:51;8.80;;;5.88;;
67162;SDS011;54092;53.088;8.850;2023-07-24T12:04:17;9.82;;;6.40;;
67162;SDS011;54092;53.088;8.850;2023-07-24T12:06:43;7.88;;;6.05;;
67162;SDS011;54092;53.088;8.850;2023-07-24T12:09:10;9.10;;;5.80;;
67162;SDS011;54092;53.088;8.850;2023-07-24T12:11:43;8.73;;;5.80;;
67162;SDS011;54092;53.088;8.850;2023-07-24T12:14:09;9.02;;;6.10;;
67162;SDS011;54092;53.088;8.850;2023-07-24T12:16:35;9.70;;;6.10;;
67162;SDS011;54092;53.088;8.850;2023-07-24T12:19:01;9.00;;;6.43;;
67162;SDS011;54092;53.088;8.850;2023-07-24T12:21:27;8.13;;;6.00;;
67162;SDS011;54092;53.088;8.850;2023-07-24T12:23:53;9.82;;;6.68;;
67162;SDS011;54092;53.088;8.850;2023-07-24T12:26:18;9.25;;;6.13;;
67162;SDS011;54092;53.088;8.850;2023-07-24T12:28:44;9.98;;;6.55;;
67162;SDS011;54092;53.088;8.850;2023-07-24T12:31:09;9.18;;;6.40;;
67162;SDS011;54092;53.088;8.850;2023-07-24T12:33:35;10.45;;;7.25;;
67162;SDS011;54092;53.088;8.850;2023-07-24T12:36:01;9.85;;;7.00;;
67162;SDS011;54092;53.088;8.850;2023-07-24T12:38:26;9.55;;;6.82;;
67162;SDS011;54092;53.088;8.850;2023-07-24T12:40:52;8.73;;;6.57;;
67162;SDS011;54092;53.088;8.850;2023-07-24T12:43:18;10.30;;;6.90;;
67162;SDS011;54092;53.088;8.850;2023-07-24T12:45:43;11.48;;;7.05;;
67162;SDS011;54092;53.088;8.850;2023-07-24T12:48:09;10.07;;;6.75;;
67162;SDS011;54092;53.088;8.850;2023-07-24T12:50:34;10.38;;;6.60;;
67162;SDS011;54092;53.088;8.850;2023-07-24T12:53:00;8.18;;;5.70;;
67162;SDS011;54092;53.088;8.850;2023-07-24T12:55:26;8.88;;;5.75;;
67162;SDS011;54092;53.088;8.850;2023-07-24T12:57:52;8.68;;;5.38;;
67162;SDS011;54092;53.088;8.850;2023-07-24T13:00:18;9.60;;;6.18;;
67162;SDS011;54092;53.088;8.850;2023-07-24T13:02:43;8.65;;;5.90;;
67162;SDS011;54092;53.088;8.850;2023-07-24T13:05:09;9.55;;;6.13;;
67162;SDS011;54092;53.088;8.850;2023-07-24T13:07:34;8.65;;;5.68;;
67162;SDS011;54092;53.088;8.850;2023-07-24T13:10:00;8.10;;;5.25;;
67162;SDS011;54092;53.088;8.850;2023-07-24T13:12:26;7.30;;;5.70;;
67162;SDS011;54092;53.088;8.850;2023-07-24T13:14:51;8.77;;;5.75;;
67162;SDS011;54092;53.088;8.850;2023-07-24T13:17:17;9.82;;;5.97;;
67162;SDS011;54092;53.088;8.850;2023-07-24T13:19:42;9.60;;;5.75;;
67162;SDS011;54092;53.088;8.850;2023-07-24T13:22:08;9.15;;;6.32;;
67162;SDS011;54092;53.088;8.850;2023-07-24T13:24:33;9.50;;;5.50;;
67162;SDS011;54092;53.088;8.850;2023-07-24T13:26:59;12.50;;;5.88;;
67162;SDS011;54092;53.088;8.850;2023-07-24T13:29:24;9.27;;;5.72;;
67162;SDS011;54092;53.088;8.850;2023-07-24T13:31:50;7.75;;;4.95;;
67162;SDS011;54092;53.088;8.850;2023-07-24T13:34:17;9.32;;;5.22;;
67162;SDS011;54092;53.088;8.850;2023-07-24T13:36:44;7.75;;;5.10;;
67162;SDS011;54092;53.088;8.850;2023-07-24T13:39:10;7.28;;;4.88;;
67162;SDS011;54092;53.088;8.850;2023-07-24T13:41:36;9.27;;;5.13;;
67162;SDS011;54092;53.088;8.850;2023-07-24T13:44:03;7.72;;;4.82;;
67162;SDS011;54092;53.088;8.850;2023-07-24T13:46:29;6.93;;;4.25;;
67162;SDS011;54092;53.088;8.850;2023-07-24T13:48:54;8.73;;;4.85;;
67162;SDS011;54092;53.088;8.850;2023-07-24T13:51:20;9.02;;;5.22;;
67162;SDS011;54092;53.088;8.850;2023-07-24T13:53:45;9.40;;;5.40;;
67162;SDS011;54092;53.088;8.850;2023-07-24T13:56:13;7.57;;;4.75;;
67162;SDS011;54092;53.088;8.850;2023-07-24T13:58:39;6.85;;;4.65;;
67162;SDS011;54092;53.088;8.850;2023-07-24T14:01:04;7.32;;;4.75;;
67162;SDS011;54092;53.088;8.850;2023-07-24T14:03:32;7.50;;;4.60;;
67162;SDS011;54092;53.088;8.850;2023-07-24T14:05:58;7.25;;;4.78;;
67162;SDS011;54092;53.088;8.850;2023-07-24T14:08:23;7.78;;;4.63;;
67162;SDS011;54092;53.088;8.850;2023-07-24T14:10:49;7.68;;;4.22;;
67162;SDS011;54092;53.088;8.850;2023-07-24T14:13:15;8.27;;;4.68;;
67162;SDS011;54092;53.088;8.850;2023-07-24T14:15:40;7.90;;;4.47;;
67162;SDS011;54092;53.088;8.850;2023-07-24T14:18:06;7.38;;;4.57;;
67162;SDS011;54092;53.088;8.850;2023-07-24T14:20:31;7.00;;;4.93;;
67162;SDS011;54092;53.088;8.850;2023-07-24T14:22:57;7.03;;;4.72;;
67162;SDS011;54092;53.088;8.850;2023-07-24T14:25:22;7.55;;;4.13;;
67162;SDS011;54092;53.088;8.850;2023-07-24T14:27:48;7.88;;;4.53;;
67162;SDS011;54092;53.088;8.850;2023-07-24T14:30:13;7.93;;;4.80;;
67162;SDS011;54092;53.088;8.850;2023-07-24T14:32:39;9.77;;;4.72;;
67162;SDS011;54092;53.088;8.850;2023-07-24T14:35:04;7.60;;;4.25;;
67162;SDS011;54092;53.088;8.850;2023-07-24T14:37:30;6.65;;;4.18;;
67162;SDS011;54092;53.088;8.850;2023-07-24T14:39:56;6.70;;;3.97;;
67162;SDS011;54092;53.088;8.850;2023-07-24T14:42:21;6.18;;;3.92;;
67162;SDS011;54092;53.088;8.850;2023-07-24T14:44:47;7.68;;;4.20;;
67162;SDS011;54092;53.088;8.850;2023-07-24T14:47:12;6.78;;;4.13;;